createdAt,value
2019-03-18T00:01:16.382Z,1.15
2019-03-18T00:03:47.418Z,0.92
2019-03-18T00:06:19.177Z,1.24
2019-03-18T00:08:50.958Z,1.15
2019-03-18T00:11:22.787Z,1.13
2019-03-18T00:13:53.230Z,1.11
2019-03-18T00:16:24.732Z,1.09
2019-03-18T00:18:55.595Z,1.08
2019-03-18T00:21:28.484Z,1.03
2019-03-18T00:24:00.138Z,1.03
2019-03-18T00:26:31.588Z,1.04
2019-03-18T00:29:02.318Z,1.05
2019-03-18T00:31:33.973Z,1.02
2019-03-18T00:34:04.604Z,1.02
2019-03-18T00:36:35.232Z,1.00
2019-03-18T00:39:08.107Z,1.02
2019-03-18T00:41:38.357Z,0.99
2019-03-18T00:44:08.861Z,1.01
2019-03-18T00:46:39.554Z,0.99
2019-03-18T00:49:10.332Z,0.96
2019-03-18T00:51:41.211Z,0.93
2019-03-18T00:54:12.818Z,0.89
2019-03-18T00:56:44.817Z,0.86
2019-03-18T00:59:15.713Z,0.81
2019-03-18T01:01:47.881Z,0.78
2019-03-18T01:04:18.680Z,0.75
2019-03-18T01:06:50.167Z,0.73
2019-03-18T01:09:23.454Z,0.76
2019-03-18T01:11:53.784Z,0.76
2019-03-18T01:14:26.566Z,0.76
2019-03-18T01:16:57.297Z,0.73
2019-03-18T01:19:28.659Z,0.66
2019-03-18T01:22:00.416Z,0.71
2019-03-18T01:24:33.067Z,0.68
2019-03-18T01:27:04.730Z,0.66
2019-03-18T01:29:35.087Z,0.59
2019-03-18T01:32:05.886Z,0.53
2019-03-18T01:34:36.722Z,0.54
2019-03-18T01:37:07.251Z,0.57
2019-03-18T01:39:37.977Z,0.52
2019-03-18T01:42:10.044Z,0.54
2019-03-18T01:44:40.469Z,0.51
2019-03-18T01:47:11.610Z,0.47
2019-03-18T01:49:41.937Z,0.48
2019-03-18T01:52:12.564Z,0.44
2019-03-18T01:54:44.615Z,0.43
2019-03-18T01:57:14.951Z,0.43
2019-03-18T01:59:45.544Z,0.46
2019-03-18T02:02:20.172Z,0.51
2019-03-18T02:04:50.424Z,0.49
2019-03-18T02:07:21.860Z,0.48
2019-03-18T02:09:53.178Z,0.51
2019-03-18T02:12:24.055Z,0.47
2019-03-18T02:14:55.324Z,0.44
2019-03-18T02:17:25.722Z,0.44
2019-03-18T02:19:56.271Z,0.41
2019-03-18T02:22:27.194Z,0.41
2019-03-18T02:24:58.642Z,0.41
2019-03-18T02:27:29.781Z,0.43
2019-03-18T02:30:00.519Z,0.43
2019-03-18T02:32:31.706Z,0.42
2019-03-18T02:35:04.950Z,0.39
2019-03-18T02:37:35.766Z,0.35
2019-03-18T02:40:08.675Z,0.37
2019-03-18T02:42:38.992Z,0.38
2019-03-18T02:45:12.668Z,0.45
2019-03-18T02:47:43.321Z,0.43
2019-03-18T02:50:16.146Z,0.48
2019-03-18T02:52:46.543Z,0.43
2019-03-18T02:55:17.495Z,0.46
2019-03-18T02:57:48.278Z,0.61
2019-03-18T03:00:19.140Z,0.69
2019-03-18T03:02:51.406Z,0.72
2019-03-18T03:05:21.634Z,0.67
2019-03-18T03:07:52.559Z,0.59
2019-03-18T03:10:23.304Z,0.63
2019-03-18T03:12:54.124Z,0.56
2019-03-18T03:15:25.576Z,0.50
2019-03-18T03:17:56.998Z,0.41
2019-03-18T03:20:29.500Z,0.44
2019-03-18T03:23:03.310Z,0.57
2019-03-18T03:25:34.995Z,0.47
2019-03-18T03:28:07.110Z,0.39
2019-03-18T03:30:38.416Z,0.39
2019-03-18T03:33:10.639Z,0.39
2019-03-18T03:35:41.369Z,0.35
2019-03-18T03:38:13.351Z,0.30
2019-03-18T03:40:43.752Z,0.34
2019-03-18T03:43:15.297Z,0.35
2019-03-18T03:45:46.354Z,0.30
2019-03-18T03:48:17.494Z,0.31
2019-03-18T03:50:47.725Z,0.28
2019-03-18T03:53:18.234Z,0.28
2019-03-18T03:55:49.570Z,0.34
2019-03-18T03:58:20.521Z,0.31
2019-03-18T04:00:51.253Z,0.30
2019-03-18T04:03:37.196Z,0.43
2019-03-18T04:05:54.570Z,0.56
2019-03-18T04:08:26.117Z,0.61
2019-03-18T04:10:56.763Z,0.54
2019-03-18T04:13:29.015Z,0.64
2019-03-18T04:16:00.872Z,0.77
2019-03-18T04:18:31.532Z,0.92
2019-03-18T04:21:02.178Z,1.00
2019-03-18T04:23:32.758Z,1.07
2019-03-18T04:26:03.900Z,1.18
2019-03-18T04:28:34.737Z,1.29
2019-03-18T04:31:05.601Z,1.37
2019-03-18T04:33:39.022Z,1.44
2019-03-18T04:36:09.491Z,1.57
2019-03-18T04:38:40.458Z,1.65
2019-03-18T04:41:11.463Z,1.78
2019-03-18T04:43:41.894Z,1.92
2019-03-18T04:46:12.419Z,2.00
2019-03-18T04:48:43.560Z,2.12
2019-03-18T04:51:15.038Z,2.23
2019-03-18T04:53:45.119Z,2.34
2019-03-18T04:56:15.964Z,2.50
2019-03-18T04:58:46.595Z,2.65
2019-03-18T05:01:17.431Z,2.82
2019-03-18T05:03:49.256Z,2.95
2019-03-18T05:06:22.528Z,3.02
2019-03-18T05:08:53.667Z,3.09
2019-03-18T05:11:26.192Z,3.23
2019-03-18T05:13:56.464Z,3.43
2019-03-18T05:16:27.456Z,3.51
2019-03-18T05:18:58.046Z,3.62
2019-03-18T05:21:29.886Z,3.73
2019-03-18T05:24:00.879Z,3.88
2019-03-18T05:26:31.613Z,3.97
2019-03-18T05:29:03.535Z,4.04
2019-03-18T05:31:34.001Z,4.08
2019-03-18T05:34:06.632Z,4.01
2019-03-18T05:36:37.417Z,3.92
2019-03-18T05:39:08.249Z,3.91
2019-03-18T05:41:38.937Z,3.95
2019-03-18T05:44:10.049Z,3.95
2019-03-18T05:46:40.646Z,3.93
2019-03-18T05:49:11.485Z,4.00
2019-03-18T05:51:42.664Z,4.12
2019-03-18T05:54:13.152Z,4.25
2019-03-18T05:56:43.887Z,4.41
2019-03-18T05:59:14.756Z,4.67
2019-03-18T06:01:45.556Z,4.84
2019-03-18T06:04:16.284Z,4.93
2019-03-18T06:06:47.039Z,4.89
2019-03-18T06:09:17.607Z,4.92
2019-03-18T06:11:48.483Z,4.82
2019-03-18T06:14:19.113Z,4.85
2019-03-18T06:16:50.255Z,4.90
2019-03-18T06:19:21.041Z,4.95
2019-03-18T06:21:52.336Z,4.95
2019-03-18T06:24:23.625Z,5.04
2019-03-18T06:26:54.759Z,5.25
2019-03-18T06:29:27.551Z,5.30
2019-03-18T06:31:58.139Z,5.44
2019-03-18T06:34:29.274Z,5.45
2019-03-18T06:37:01.461Z,5.56
2019-03-18T06:39:33.437Z,5.78
2019-03-18T06:42:04.732Z,6.01
2019-03-18T06:44:35.789Z,6.18
2019-03-18T06:47:06.686Z,6.23
2019-03-18T06:49:37.967Z,6.29
2019-03-18T06:52:11.367Z,6.46
2019-03-18T06:54:41.788Z,6.51
2019-03-18T06:57:12.523Z,6.62
2019-03-18T06:59:42.945Z,6.58
2019-03-18T07:02:13.681Z,6.62
2019-03-18T07:04:44.523Z,6.64
2019-03-18T07:07:15.247Z,6.68
2019-03-18T07:09:45.966Z,6.74
2019-03-18T07:12:17.636Z,6.93
2019-03-18T07:14:48.162Z,6.98
2019-03-18T07:17:18.897Z,6.95
2019-03-18T07:19:50.456Z,7.04
2019-03-18T07:22:20.872Z,7.00
2019-03-18T07:24:51.408Z,7.38
2019-03-18T07:27:22.338Z,7.59
2019-03-18T07:29:52.848Z,7.94
2019-03-18T07:32:25.337Z,8.05
2019-03-18T07:34:58.070Z,8.27
2019-03-18T07:37:28.861Z,8.40
2019-03-18T07:40:01.270Z,8.50
2019-03-18T07:42:32.057Z,8.63
2019-03-18T07:45:04.037Z,8.91
2019-03-18T07:47:34.297Z,8.89
2019-03-18T07:50:08.145Z,9.19
2019-03-18T07:52:38.776Z,9.46
2019-03-18T07:55:11.455Z,9.79
2019-03-18T07:57:43.231Z,9.87
2019-03-18T08:00:16.706Z,9.65
2019-03-18T08:02:48.170Z,10.25
2019-03-18T08:05:18.461Z,10.31
2019-03-18T08:07:49.422Z,10.72
2019-03-18T08:10:20.316Z,11.11
2019-03-18T08:12:51.617Z,11.56
2019-03-18T08:15:22.754Z,11.64
2019-03-18T08:17:55.863Z,11.74
2019-03-18T08:20:26.842Z,11.63
2019-03-18T08:23:01.467Z,11.92
2019-03-18T08:25:34.962Z,12.04
2019-03-18T08:28:10.816Z,12.56
2019-03-18T08:30:44.421Z,12.82
2019-03-18T08:33:21.083Z,12.99
2019-03-18T08:35:54.056Z,13.09
2019-03-18T08:38:27.700Z,13.25
2019-03-18T08:40:58.009Z,13.06
2019-03-18T08:43:29.982Z,13.09
2019-03-18T08:46:00.939Z,13.45
2019-03-18T08:48:32.471Z,13.48
2019-03-18T08:51:02.899Z,13.62
2019-03-18T08:53:33.636Z,13.41
2019-03-18T08:56:06.648Z,13.41
2019-03-18T08:58:37.213Z,13.72
2019-03-18T09:01:08.996Z,14.26
2019-03-18T09:03:39.736Z,14.42
2019-03-18T09:06:13.139Z,14.14
2019-03-18T09:08:44.579Z,14.28
2019-03-18T09:11:15.627Z,14.65
2019-03-18T09:13:46.003Z,15.09
2019-03-18T09:16:17.811Z,15.17
2019-03-18T09:18:49.051Z,15.52
2019-03-18T09:21:21.620Z,15.80
2019-03-18T09:23:52.720Z,15.56
2019-03-18T09:26:26.422Z,15.74
2019-03-18T09:28:58.630Z,15.89
2019-03-18T09:31:32.639Z,16.01
2019-03-18T09:34:03.481Z,15.89
2019-03-18T09:36:34.414Z,16.49
2019-03-18T09:39:08.936Z,16.54
2019-03-18T09:41:40.105Z,16.38
2019-03-18T09:44:11.130Z,16.71
2019-03-18T09:46:43.499Z,16.86
2019-03-18T09:49:21.480Z,16.94
2019-03-18T09:51:47.513Z,16.98
2019-03-18T09:54:18.042Z,17.23
2019-03-18T09:56:48.772Z,17.71
2019-03-18T09:59:19.646Z,18.25
2019-03-18T10:01:51.060Z,18.76
2019-03-18T10:04:21.587Z,17.98
2019-03-18T10:06:53.449Z,18.74
2019-03-18T10:09:24.074Z,19.17
2019-03-18T10:11:54.706Z,18.60
2019-03-18T10:14:25.440Z,19.40
2019-03-18T10:16:56.070Z,19.45
2019-03-18T10:19:33.526Z,18.96
2019-03-18T10:22:00.917Z,20.13
2019-03-18T10:24:31.336Z,20.68
2019-03-18T10:27:02.993Z,20.21
2019-03-18T10:29:34.131Z,19.15
2019-03-18T10:32:05.021Z,18.57
2019-03-18T10:34:35.806Z,19.58
2019-03-18T10:37:06.763Z,21.15
2019-03-18T10:39:37.369Z,21.32
2019-03-18T10:42:08.557Z,22.07
2019-03-18T10:44:41.045Z,20.61
2019-03-18T10:47:11.706Z,22.01
2019-03-18T10:49:46.539Z,21.97
2019-03-18T10:52:16.375Z,22.05
2019-03-18T10:54:47.604Z,21.80
2019-03-18T10:57:18.041Z,23.53
2019-03-18T10:59:50.262Z,21.89
2019-03-18T11:02:21.194Z,22.04
2019-03-18T11:04:52.795Z,20.97
2019-03-18T11:07:25.776Z,21.29
2019-03-18T11:09:57.630Z,21.02
2019-03-18T11:12:28.977Z,21.27
2019-03-18T11:15:00.895Z,21.34
2019-03-18T11:17:31.441Z,22.08
2019-03-18T11:20:05.075Z,22.72
2019-03-18T11:22:44.194Z,21.75
2019-03-18T11:25:15.901Z,23.26
2019-03-18T11:27:47.866Z,22.98
2019-03-18T11:30:20.392Z,22.64
2019-03-18T11:32:53.270Z,22.69
2019-03-18T11:35:25.052Z,23.24
2019-03-18T11:37:56.790Z,22.08
2019-03-18T11:40:28.460Z,21.82
2019-03-18T11:43:01.015Z,22.95
2019-03-18T11:45:34.314Z,23.35
2019-03-18T11:48:05.663Z,22.75
2019-03-18T11:50:37.087Z,22.95
2019-03-18T11:53:14.137Z,23.76
2019-03-18T11:55:43.312Z,23.43
2019-03-18T11:58:14.097Z,24.27
2019-03-18T12:00:45.869Z,23.23
2019-03-18T12:03:16.502Z,22.30
2019-03-18T12:05:48.867Z,23.13
2019-03-18T12:08:19.192Z,22.35
2019-03-18T12:10:50.644Z,22.32
2019-03-18T12:13:21.595Z,23.17
2019-03-18T12:15:52.310Z,22.68
2019-03-18T12:18:23.863Z,23.52
2019-03-18T12:20:56.029Z,23.49
2019-03-18T12:23:28.325Z,23.41
2019-03-18T12:25:59.624Z,22.26
2019-03-18T12:28:30.897Z,22.00
2019-03-18T12:31:01.727Z,22.44
2019-03-18T12:33:33.185Z,23.16
2019-03-18T12:36:09.346Z,24.16
2019-03-18T12:38:41.396Z,22.87
2019-03-18T12:41:12.126Z,22.97
2019-03-18T12:43:45.332Z,21.60
2019-03-18T12:46:15.743Z,23.64
2019-03-18T12:48:47.910Z,24.34
2019-03-18T12:51:19.265Z,24.49
2019-03-18T12:53:50.107Z,23.61
2019-03-18T12:56:21.337Z,24.54
2019-03-18T12:58:51.986Z,24.85
2019-03-18T13:01:23.528Z,24.12
2019-03-18T13:03:54.250Z,24.20
2019-03-18T13:06:24.885Z,24.48
2019-03-18T13:08:55.820Z,23.96
2019-03-18T13:11:26.335Z,24.53
2019-03-18T13:13:57.077Z,23.80
2019-03-18T13:16:27.707Z,24.06
2019-03-18T13:18:58.441Z,24.33
2019-03-18T13:21:30.839Z,23.54
2019-03-18T13:24:05.742Z,24.66
2019-03-18T13:26:36.594Z,25.12
2019-03-18T13:29:07.046Z,25.47
2019-03-18T13:31:37.835Z,24.50
2019-03-18T13:34:08.972Z,24.43
2019-03-18T13:36:39.740Z,24.77
2019-03-18T13:39:10.591Z,24.02
2019-03-18T13:41:42.727Z,23.97
2019-03-18T13:44:13.665Z,24.78
2019-03-18T13:46:45.815Z,25.72
2019-03-18T13:49:17.946Z,25.10
2019-03-18T13:51:48.475Z,24.10
2019-03-18T13:54:20.165Z,24.22
2019-03-18T13:56:51.397Z,24.69
2019-03-18T13:59:22.251Z,24.77
2019-03-18T14:01:52.979Z,24.75
2019-03-18T14:04:25.466Z,23.68
2019-03-18T14:06:56.183Z,22.63
2019-03-18T14:09:26.812Z,23.10
2019-03-18T14:11:59.789Z,22.20
2019-03-18T14:14:30.533Z,22.35
2019-03-18T14:17:02.121Z,23.14
2019-03-18T14:19:32.925Z,23.13
2019-03-18T14:22:03.693Z,22.86
2019-03-18T14:24:34.606Z,22.61
2019-03-18T14:27:05.521Z,21.53
2019-03-18T14:29:36.062Z,21.59
2019-03-18T14:32:08.738Z,21.07
2019-03-18T14:34:39.173Z,22.07
2019-03-18T14:37:11.653Z,22.19
2019-03-18T14:39:42.206Z,22.18
2019-03-18T14:42:12.907Z,23.01
2019-03-18T14:44:45.890Z,21.85
2019-03-18T14:47:16.728Z,21.67
2019-03-18T14:49:47.666Z,22.72
2019-03-18T14:52:18.095Z,22.62
2019-03-18T14:54:49.684Z,21.22
2019-03-18T14:57:20.887Z,21.78
2019-03-18T14:59:53.070Z,21.31
2019-03-18T15:02:23.482Z,21.31
2019-03-18T15:04:54.626Z,20.75
2019-03-18T15:07:25.460Z,20.86
2019-03-18T15:09:56.425Z,19.86
2019-03-18T15:12:27.255Z,19.88
2019-03-18T15:14:58.672Z,20.10
2019-03-18T15:17:31.148Z,19.28
2019-03-18T15:20:02.399Z,18.06
2019-03-18T15:22:32.924Z,17.66
2019-03-18T15:25:03.533Z,17.31
2019-03-18T15:27:34.112Z,16.34
2019-03-18T15:30:11.549Z,15.22
2019-03-18T15:32:42.816Z,13.87
2019-03-18T15:35:14.367Z,13.31
2019-03-18T15:37:46.235Z,13.05
2019-03-18T15:40:20.031Z,12.87
2019-03-18T15:42:50.663Z,12.60
2019-03-18T15:45:26.006Z,12.30
2019-03-18T15:47:56.537Z,12.01
2019-03-18T15:50:27.675Z,11.81
2019-03-18T15:52:58.534Z,11.66
2019-03-18T15:55:30.304Z,11.45
2019-03-18T15:58:01.307Z,11.42
2019-03-18T16:00:32.812Z,11.40
2019-03-18T16:03:04.713Z,11.26
2019-03-18T16:05:35.452Z,11.13
2019-03-18T16:08:06.063Z,11.10
2019-03-18T16:10:36.722Z,10.94
2019-03-18T16:13:07.658Z,10.86
2019-03-18T16:15:38.284Z,10.86
2019-03-18T16:18:09.006Z,10.73
2019-03-18T16:20:43.122Z,10.69
2019-03-18T16:23:14.369Z,10.63
2019-03-18T16:25:46.735Z,10.63
2019-03-18T16:28:19.416Z,10.49
2019-03-18T16:30:50.150Z,10.41
2019-03-18T16:33:23.004Z,10.39
2019-03-18T16:35:56.413Z,10.32
2019-03-18T16:38:27.061Z,10.28
2019-03-18T16:40:58.602Z,10.23
2019-03-18T16:43:29.443Z,10.15
2019-03-18T16:46:01.029Z,10.13
2019-03-18T16:48:31.588Z,10.06
2019-03-18T16:51:02.360Z,9.99
2019-03-18T16:53:34.222Z,9.98
2019-03-18T16:56:07.403Z,9.93
2019-03-18T16:58:38.444Z,9.82
2019-03-18T17:01:10.198Z,9.83
2019-03-18T17:03:40.728Z,9.83
2019-03-18T17:06:11.561Z,9.75
2019-03-18T17:08:42.210Z,9.71
2019-03-18T17:11:12.931Z,9.75
2019-03-18T17:13:44.794Z,9.66
2019-03-18T17:16:16.134Z,9.66
2019-03-18T17:18:46.460Z,9.56
2019-03-18T17:21:17.085Z,9.52
2019-03-18T17:23:49.211Z,9.44
2019-03-18T17:26:22.438Z,9.46
2019-03-18T17:28:53.899Z,9.46
2019-03-18T17:31:24.825Z,9.39
2019-03-18T17:33:55.659Z,9.14
2019-03-18T17:36:26.367Z,9.30
2019-03-18T17:38:57.999Z,9.27
2019-03-18T17:41:28.755Z,9.30
2019-03-18T17:44:00.537Z,9.25
2019-03-18T17:46:31.271Z,9.19
2019-03-18T17:49:02.006Z,9.23
2019-03-18T17:51:33.474Z,9.25
2019-03-18T17:54:04.494Z,9.16
2019-03-18T17:56:36.760Z,9.05
2019-03-18T17:59:07.062Z,9.16
2019-03-18T18:01:38.325Z,9.19
2019-03-18T18:04:11.986Z,9.24
2019-03-18T18:06:42.092Z,9.31
2019-03-18T18:09:12.471Z,9.21
2019-03-18T18:11:43.345Z,9.23
2019-03-18T18:14:14.448Z,9.24
2019-03-18T18:16:44.766Z,9.20
2019-03-18T18:19:16.255Z,9.06
2019-03-18T18:21:47.062Z,9.06
2019-03-18T18:24:18.344Z,9.02
2019-03-18T18:26:49.348Z,8.91
2019-03-18T18:29:20.075Z,8.86
2019-03-18T18:31:51.111Z,8.81
2019-03-18T18:34:21.943Z,8.76
2019-03-18T18:36:52.581Z,8.73
2019-03-18T18:39:23.307Z,8.66
2019-03-18T18:41:53.936Z,8.57
2019-03-18T18:44:24.625Z,8.53
2019-03-18T18:46:55.153Z,8.40
2019-03-18T18:49:26.470Z,8.32
2019-03-18T18:51:59.533Z,8.34
2019-03-18T18:54:32.451Z,8.28
2019-03-18T18:57:03.351Z,8.20
2019-03-18T18:59:34.026Z,8.14
2019-03-18T19:02:04.711Z,8.13
2019-03-18T19:04:35.034Z,8.04
2019-03-18T19:07:08.969Z,8.03
2019-03-18T19:09:39.425Z,8.00
2019-03-18T19:12:13.482Z,7.90
2019-03-18T19:14:43.909Z,7.91
2019-03-18T19:17:16.259Z,7.84
2019-03-18T19:19:49.975Z,7.79
2019-03-18T19:22:20.300Z,7.70
2019-03-18T19:24:51.135Z,7.63
2019-03-18T19:27:22.175Z,7.32
2019-03-18T19:29:53.626Z,7.55
2019-03-18T19:32:25.894Z,7.54
2019-03-18T19:34:56.630Z,7.49
2019-03-18T19:37:27.567Z,7.44
2019-03-18T19:39:58.303Z,7.40
2019-03-18T19:42:29.136Z,7.36
2019-03-18T19:44:59.864Z,7.28
2019-03-18T19:47:30.701Z,7.19
2019-03-18T19:50:02.663Z,7.12
2019-03-18T19:52:33.902Z,7.12
2019-03-18T19:55:05.154Z,7.03
2019-03-18T19:57:35.985Z,6.99
2019-03-18T20:00:23.818Z,6.96
2019-03-18T20:02:54.550Z,6.92
2019-03-18T20:05:25.386Z,6.92
2019-03-18T20:07:56.835Z,6.95
2019-03-18T20:10:27.570Z,6.89
2019-03-18T20:12:58.450Z,6.87
2019-03-18T20:15:31.488Z,6.82
2019-03-18T20:18:02.938Z,6.85
2019-03-18T20:20:33.168Z,6.82
2019-03-18T20:23:04.697Z,6.74
2019-03-18T20:25:36.616Z,6.70
2019-03-18T20:28:07.404Z,6.71
2019-03-18T20:30:37.911Z,6.71
2019-03-18T20:33:08.708Z,6.66
2019-03-18T20:35:39.298Z,6.61
2019-03-18T20:38:10.030Z,6.59
2019-03-18T20:40:40.502Z,6.56
2019-03-18T20:43:11.199Z,6.52
2019-03-18T20:45:42.126Z,6.46
2019-03-18T20:48:12.853Z,6.42
2019-03-18T20:50:43.348Z,6.45
2019-03-18T20:53:15.651Z,6.39
2019-03-18T20:55:46.587Z,6.33
2019-03-18T20:58:16.806Z,6.33
2019-03-18T21:00:47.550Z,6.30
2019-03-18T21:03:18.249Z,6.33
2019-03-18T21:05:48.864Z,6.31
2019-03-18T21:08:20.330Z,6.36
2019-03-18T21:10:52.214Z,6.36
2019-03-18T21:13:22.845Z,6.35
2019-03-18T21:15:53.531Z,6.29
2019-03-18T21:18:24.715Z,6.27
2019-03-18T21:20:55.448Z,6.25
2019-03-18T21:23:26.341Z,6.18
2019-03-18T21:25:56.843Z,6.14
2019-03-18T21:28:28.979Z,6.14
2019-03-18T21:30:59.503Z,6.10
2019-03-18T21:33:30.422Z,6.04
2019-03-18T21:36:01.274Z,6.00
2019-03-18T21:38:32.013Z,5.97
2019-03-18T21:41:02.681Z,6.02
2019-03-18T21:43:33.368Z,6.00
2019-03-18T21:46:04.519Z,5.90
2019-03-18T21:48:35.252Z,5.91
2019-03-18T21:51:08.010Z,5.87
2019-03-18T21:53:38.562Z,5.84
2019-03-18T21:56:10.244Z,5.81
2019-03-18T21:58:40.663Z,5.73
2019-03-18T22:01:11.574Z,5.66
2019-03-18T22:03:42.613Z,5.59
2019-03-18T22:06:13.141Z,5.52
2019-03-18T22:08:44.185Z,5.42
2019-03-18T22:11:14.812Z,5.36
2019-03-18T22:13:45.432Z,5.25
2019-03-18T22:16:16.068Z,5.20
2019-03-18T22:18:47.415Z,5.14
2019-03-18T22:21:17.736Z,5.15
2019-03-18T22:23:49.528Z,5.10
2019-03-18T22:26:21.566Z,5.04
2019-03-18T22:28:52.086Z,5.00
2019-03-18T22:31:22.721Z,4.99
2019-03-18T22:33:54.102Z,4.96
2019-03-18T22:36:25.663Z,4.90
2019-03-18T22:38:56.350Z,4.87
2019-03-18T22:41:26.977Z,4.88
2019-03-18T22:43:57.815Z,4.80
2019-03-18T22:46:28.644Z,4.74
2019-03-18T22:49:01.663Z,4.66
2019-03-18T22:51:32.676Z,4.60
2019-03-18T22:54:03.107Z,4.57
2019-03-18T22:56:36.291Z,4.53
2019-03-18T22:59:07.851Z,4.48
2019-03-18T23:01:39.258Z,4.41
2019-03-18T23:04:11.353Z,4.36
2019-03-18T23:06:42.293Z,4.30
2019-03-18T23:09:13.052Z,4.29
2019-03-18T23:11:43.960Z,4.32
2019-03-18T23:14:17.967Z,4.28
2019-03-18T23:16:48.885Z,4.25
2019-03-18T23:19:21.002Z,4.18
2019-03-18T23:21:54.264Z,4.15
2019-03-18T23:24:25.620Z,4.19
2019-03-18T23:26:56.344Z,4.23
2019-03-18T23:29:28.518Z,4.27
2019-03-18T23:32:00.267Z,4.28
2019-03-18T23:34:30.693Z,4.24
2019-03-18T23:37:04.292Z,4.27
2019-03-18T23:39:34.819Z,4.23
2019-03-18T23:42:07.294Z,4.19
2019-03-18T23:44:37.699Z,4.22
2019-03-18T23:47:08.758Z,4.17
2019-03-18T23:49:39.488Z,4.11
2019-03-18T23:52:10.221Z,4.03
2019-03-18T23:54:41.675Z,4.05
2019-03-18T23:57:12.814Z,4.06
2019-03-18T23:59:45.645Z,4.05
